sensor_id;sensor_type;location;lat;lon;timestamp;pressure;altitude;pressure_sealevel;temperature;humidity
42007;BME280;27696;42.704;23.304;2022-07-09T00:00:59;95170.59;;;32.02;33.21
42007;BME280;27696;42.704;23.304;2022-07-09T00:03:25;95161.19;;;31.59;33.60
42007;BME280;27696;42.704;23.304;2022-07-09T00:05:50;95167.13;;;31.32;33.97
42007;BME280;27696;42.704;23.304;2022-07-09T00:08:15;95178.59;;;30.53;35.33
42007;BME280;27696;42.704;23.304;2022-07-09T00:10:41;95159.09;;;30.82;34.78
42007;BME280;27696;42.704;23.304;2022-07-09T00:13:07;95164.09;;;30.39;35.73
42007;BME280;27696;42.704;23.304;2022-07-09T00:15:32;95151.00;;;30.47;35.58
42007;BME280;27696;42.704;23.304;2022-07-09T00:17:57;95166.69;;;30.37;35.57
42007;BME280;27696;42.704;23.304;2022-07-09T00:20:23;95167.47;;;29.87;36.46
42007;BME280;27696;42.704;23.304;2022-07-09T00:22:49;95157.06;;;30.82;34.85
42007;BME280;27696;42.704;23.304;2022-07-09T00:25:14;95135.25;;;30.26;35.60
42007;BME280;27696;42.704;23.304;2022-07-09T00:27:40;95157.09;;;30.38;36.13
42007;BME280;27696;42.704;23.304;2022-07-09T00:30:05;95149.19;;;31.17;34.47
42007;BME280;27696;42.704;23.304;2022-07-09T00:32:31;95143.22;;;30.38;35.62
42007;BME280;27696;42.704;23.304;2022-07-09T00:34:57;95140.59;;;30.77;34.93
42007;BME280;27696;42.704;23.304;2022-07-09T00:37:22;95127.53;;;31.55;33.78
42007;BME280;27696;42.704;23.304;2022-07-09T00:39:47;95140.31;;;31.42;33.86
42007;BME280;27696;42.704;23.304;2022-07-09T00:42:13;95129.34;;;29.22;37.37
42007;BME280;27696;42.704;23.304;2022-07-09T00:44:39;95140.59;;;30.84;34.86
42007;BME280;27696;42.704;23.304;2022-07-09T00:47:06;95148.66;;;30.15;36.19
42007;BME280;27696;42.704;23.304;2022-07-09T00:49:35;95144.63;;;30.68;35.03
42007;BME280;27696;42.704;23.304;2022-07-09T00:52:04;95137.47;;;30.80;35.18
42007;BME280;27696;42.704;23.304;2022-07-09T00:54:30;95132.66;;;30.81;35.48
42007;BME280;27696;42.704;23.304;2022-07-09T00:56:55;95112.38;;;30.41;35.57
42007;BME280;27696;42.704;23.304;2022-07-09T00:59:21;95133.47;;;30.52;35.36
42007;BME280;27696;42.704;23.304;2022-07-09T01:01:51;95124.22;;;31.72;33.51
42007;BME280;27696;42.704;23.304;2022-07-09T01:04:17;95114.53;;;30.87;34.85
42007;BME280;27696;42.704;23.304;2022-07-09T01:06:43;95107.00;;;31.58;33.33
42007;BME280;27696;42.704;23.304;2022-07-09T01:09:09;95116.53;;;30.64;35.13
42007;BME280;27696;42.704;23.304;2022-07-09T01:11:35;95114.03;;;30.37;35.40
42007;BME280;27696;42.704;23.304;2022-07-09T01:14:01;95120.88;;;30.36;35.44
42007;BME280;27696;42.704;23.304;2022-07-09T01:16:31;95117.28;;;32.04;32.76
42007;BME280;27696;42.704;23.304;2022-07-09T01:18:57;95112.09;;;30.61;34.80
42007;BME280;27696;42.704;23.304;2022-07-09T01:21:23;95117.66;;;30.68;34.44
42007;BME280;27696;42.704;23.304;2022-07-09T01:23:48;95113.69;;;30.48;34.80
42007;BME280;27696;42.704;23.304;2022-07-09T01:26:14;95112.56;;;31.11;33.98
42007;BME280;27696;42.704;23.304;2022-07-09T01:28:39;95117.91;;;30.94;34.28
42007;BME280;27696;42.704;23.304;2022-07-09T01:31:05;95102.91;;;31.59;33.00
42007;BME280;27696;42.704;23.304;2022-07-09T01:33:30;95089.94;;;30.76;33.94
42007;BME280;27696;42.704;23.304;2022-07-09T01:35:57;95104.22;;;31.03;34.22
42007;BME280;27696;42.704;23.304;2022-07-09T01:38:22;95113.25;;;30.21;35.35
42007;BME280;27696;42.704;23.304;2022-07-09T01:40:48;95109.16;;;30.74;34.45
42007;BME280;27696;42.704;23.304;2022-07-09T01:43:13;95112.63;;;30.07;35.36
42007;BME280;27696;42.704;23.304;2022-07-09T01:45:39;95104.69;;;30.55;34.95
42007;BME280;27696;42.704;23.304;2022-07-09T01:48:04;95089.22;;;30.99;33.86
42007;BME280;27696;42.704;23.304;2022-07-09T01:50:30;95091.06;;;29.84;35.60
42007;BME280;27696;42.704;23.304;2022-07-09T01:52:55;95106.13;;;30.49;34.55
42007;BME280;27696;42.704;23.304;2022-07-09T01:55:21;95102.56;;;31.39;33.03
42007;BME280;27696;42.704;23.304;2022-07-09T01:57:46;95099.72;;;30.54;34.61
42007;BME280;27696;42.704;23.304;2022-07-09T02:00:12;95083.78;;;29.94;35.37
42007;BME280;27696;42.704;23.304;2022-07-09T02:02:38;95098.50;;;31.48;32.91
42007;BME280;27696;42.704;23.304;2022-07-09T02:05:04;95095.41;;;30.45;34.77
42007;BME280;27696;42.704;23.304;2022-07-09T02:07:29;95115.56;;;30.01;35.27
42007;BME280;27696;42.704;23.304;2022-07-09T02:09:55;95109.34;;;30.16;34.74
42007;BME280;27696;42.704;23.304;2022-07-09T02:12:20;95098.19;;;30.01;35.43
42007;BME280;27696;42.704;23.304;2022-07-09T02:14:46;95109.38;;;30.32;34.73
42007;BME280;27696;42.704;23.304;2022-07-09T02:17:11;95113.00;;;30.55;34.74
42007;BME280;27696;42.704;23.304;2022-07-09T02:19:37;95119.59;;;30.52;34.42
42007;BME280;27696;42.704;23.304;2022-07-09T02:22:02;95112.59;;;30.44;33.95
42007;BME280;27696;42.704;23.304;2022-07-09T02:24:28;95093.63;;;30.63;33.75
42007;BME280;27696;42.704;23.304;2022-07-09T02:26:54;95117.31;;;30.72;33.92
42007;BME280;27696;42.704;23.304;2022-07-09T02:29:19;95109.34;;;30.24;34.22
42007;BME280;27696;42.704;23.304;2022-07-09T02:31:45;95117.81;;;30.63;33.86
42007;BME280;27696;42.704;23.304;2022-07-09T02:34:10;95107.66;;;30.57;33.52
42007;BME280;27696;42.704;23.304;2022-07-09T02:36:36;95125.88;;;30.01;34.64
42007;BME280;27696;42.704;23.304;2022-07-09T02:39:01;95130.69;;;30.00;35.01
42007;BME280;27696;42.704;23.304;2022-07-09T02:41:27;95055.81;;;29.48;34.87
42007;BME280;27696;42.704;23.304;2022-07-09T02:43:52;95134.47;;;29.89;34.68
42007;BME280;27696;42.704;23.304;2022-07-09T02:46:18;95135.13;;;30.03;34.31
42007;BME280;27696;42.704;23.304;2022-07-09T02:48:43;95117.44;;;30.14;34.33
42007;BME280;27696;42.704;23.304;2022-07-09T02:51:08;95128.53;;;30.14;34.58
42007;BME280;27696;42.704;23.304;2022-07-09T02:53:34;95123.38;;;30.18;35.01
42007;BME280;27696;42.704;23.304;2022-07-09T02:55:59;95126.47;;;30.07;34.99
42007;BME280;27696;42.704;23.304;2022-07-09T02:58:25;95115.16;;;31.48;32.18
42007;BME280;27696;42.704;23.304;2022-07-09T03:00:50;95122.81;;;30.64;33.79
42007;BME280;27696;42.704;23.304;2022-07-09T03:03:15;95133.94;;;30.72;33.84
42007;BME280;27696;42.704;23.304;2022-07-09T03:05:41;95134.75;;;29.78;35.48
42007;BME280;27696;42.704;23.304;2022-07-09T03:08:07;95125.25;;;30.76;33.59
42007;BME280;27696;42.704;23.304;2022-07-09T03:10:34;95131.25;;;31.34;32.80
42007;BME280;27696;42.704;23.304;2022-07-09T03:13:00;95136.50;;;30.78;33.63
42007;BME280;27696;42.704;23.304;2022-07-09T03:15:26;95139.66;;;30.74;33.62
42007;BME280;27696;42.704;23.304;2022-07-09T03:17:51;95136.69;;;30.20;34.84
42007;BME280;27696;42.704;23.304;2022-07-09T03:20:17;95129.50;;;30.84;33.57
42007;BME280;27696;42.704;23.304;2022-07-09T03:22:42;95144.06;;;30.17;34.51
42007;BME280;27696;42.704;23.304;2022-07-09T03:25:08;95130.25;;;30.77;33.58
42007;BME280;27696;42.704;23.304;2022-07-09T03:27:34;95130.66;;;31.04;33.44
42007;BME280;27696;42.704;23.304;2022-07-09T03:30:01;95135.56;;;30.15;35.07
42007;BME280;27696;42.704;23.304;2022-07-09T03:32:27;95129.50;;;30.24;34.90
42007;BME280;27696;42.704;23.304;2022-07-09T03:34:52;95134.31;;;30.84;33.70
42007;BME280;27696;42.704;23.304;2022-07-09T03:37:19;95134.34;;;30.92;33.50
42007;BME280;27696;42.704;23.304;2022-07-09T03:39:45;95128.09;;;31.22;33.13
42007;BME280;27696;42.704;23.304;2022-07-09T03:42:11;95135.09;;;31.00;33.69
42007;BME280;27696;42.704;23.304;2022-07-09T03:44:37;95118.03;;;30.72;34.32
42007;BME280;27696;42.704;23.304;2022-07-09T03:47:03;95129.22;;;31.19;33.07
42007;BME280;27696;42.704;23.304;2022-07-09T03:49:29;95127.72;;;31.57;32.94
42007;BME280;27696;42.704;23.304;2022-07-09T03:51:55;95133.56;;;30.68;34.59
42007;BME280;27696;42.704;23.304;2022-07-09T03:54:20;95137.53;;;30.51;34.56
42007;BME280;27696;42.704;23.304;2022-07-09T03:56:45;95124.00;;;31.00;33.33
42007;BME280;27696;42.704;23.304;2022-07-09T03:59:11;95140.59;;;30.84;34.12
42007;BME280;27696;42.704;23.304;2022-07-09T04:01:36;95102.13;;;30.57;34.01
42007;BME280;27696;42.704;23.304;2022-07-09T04:04:03;95116.16;;;30.60;34.09
42007;BME280;27696;42.704;23.304;2022-07-09T04:06:29;95123.19;;;30.68;34.11
42007;BME280;27696;42.704;23.304;2022-07-09T04:08:55;95135.88;;;31.47;32.55
42007;BME280;27696;42.704;23.304;2022-07-09T04:11:20;95123.59;;;29.91;34.46
42007;BME280;27696;42.704;23.304;2022-07-09T04:13:46;95156.91;;;29.78;35.07
42007;BME280;27696;42.704;23.304;2022-07-09T04:16:11;95136.53;;;30.85;33.42
42007;BME280;27696;42.704;23.304;2022-07-09T04:18:37;95147.47;;;30.99;33.19
42007;BME280;27696;42.704;23.304;2022-07-09T04:21:02;95146.19;;;31.00;33.38
42007;BME280;27696;42.704;23.304;2022-07-09T04:23:28;95138.56;;;30.77;33.50
42007;BME280;27696;42.704;23.304;2022-07-09T04:25:53;95155.25;;;30.93;33.50
42007;BME280;27696;42.704;23.304;2022-07-09T04:28:19;95143.19;;;30.82;33.95
42007;BME280;27696;42.704;23.304;2022-07-09T04:30:46;95152.50;;;31.39;33.18
42007;BME280;27696;42.704;23.304;2022-07-09T04:33:12;95157.16;;;31.13;33.80
42007;BME280;27696;42.704;23.304;2022-07-09T04:35:38;95154.16;;;31.27;33.29
42007;BME280;27696;42.704;23.304;2022-07-09T04:38:04;95145.94;;;30.75;33.92
42007;BME280;27696;42.704;23.304;2022-07-09T04:40:29;95129.72;;;31.02;33.53
42007;BME280;27696;42.704;23.304;2022-07-09T04:42:55;95147.56;;;30.54;34.24
42007;BME280;27696;42.704;23.304;2022-07-09T04:45:21;95150.16;;;30.60;34.12
42007;BME280;27696;42.704;23.304;2022-07-09T04:47:46;95154.44;;;30.24;34.52
42007;BME280;27696;42.704;23.304;2022-07-09T04:50:12;95148.50;;;30.65;34.29
42007;BME280;27696;42.704;23.304;2022-07-09T04:52:39;95151.66;;;30.69;33.73
42007;BME280;27696;42.704;23.304;2022-07-09T04:55:05;95143.41;;;30.40;34.35
42007;BME280;27696;42.704;23.304;2022-07-09T04:57:31;95149.44;;;30.60;34.16
42007;BME280;27696;42.704;23.304;2022-07-09T04:59:58;95151.09;;;30.70;34.11
42007;BME280;27696;42.704;23.304;2022-07-09T05:02:24;95154.09;;;30.80;33.81
42007;BME280;27696;42.704;23.304;2022-07-09T05:04:49;95149.13;;;30.94;33.88
42007;BME280;27696;42.704;23.304;2022-07-09T05:07:15;95154.72;;;31.10;33.45
42007;BME280;27696;42.704;23.304;2022-07-09T05:09:40;95142.53;;;31.59;31.84
42007;BME280;27696;42.704;23.304;2022-07-09T05:12:06;95154.19;;;31.42;32.52
42007;BME280;27696;42.704;23.304;2022-07-09T05:14:33;95155.09;;;31.53;32.60
42007;BME280;27696;42.704;23.304;2022-07-09T05:16:59;95154.00;;;31.32;32.77
42007;BME280;27696;42.704;23.304;2022-07-09T05:19:24;95165.53;;;30.69;34.20
42007;BME280;27696;42.704;23.304;2022-07-09T05:21:50;95116.28;;;31.22;33.24
42007;BME280;27696;42.704;23.304;2022-07-09T05:24:15;95168.81;;;30.67;34.83
42007;BME280;27696;42.704;23.304;2022-07-09T05:26:41;95175.72;;;30.82;34.46
42007;BME280;27696;42.704;23.304;2022-07-09T05:29:06;95169.16;;;31.39;32.84
42007;BME280;27696;42.704;23.304;2022-07-09T05:31:32;95175.06;;;31.12;33.11
42007;BME280;27696;42.704;23.304;2022-07-09T05:33:57;95150.63;;;31.03;32.52
42007;BME280;27696;42.704;23.304;2022-07-09T05:36:23;95185.63;;;30.62;33.83
42007;BME280;27696;42.704;23.304;2022-07-09T05:38:48;95180.41;;;30.50;34.15
42007;BME280;27696;42.704;23.304;2022-07-09T05:41:14;95187.16;;;30.78;33.52
42007;BME280;27696;42.704;23.304;2022-07-09T05:43:43;95172.72;;;30.64;33.77
42007;BME280;27696;42.704;23.304;2022-07-09T05:46:08;95145.09;;;31.65;31.90
42007;BME280;27696;42.704;23.304;2022-07-09T05:48:34;95163.63;;;31.24;32.73
42007;BME280;27696;42.704;23.304;2022-07-09T05:50:59;95193.41;;;30.63;33.37
42007;BME280;27696;42.704;23.304;2022-07-09T05:53:25;95162.13;;;31.46;32.34
42007;BME280;27696;42.704;23.304;2022-07-09T05:55:50;95185.94;;;31.02;33.30
42007;BME280;27696;42.704;23.304;2022-07-09T05:58:16;95168.06;;;31.42;32.42
42007;BME280;27696;42.704;23.304;2022-07-09T06:00:41;95163.78;;;30.50;34.50
42007;BME280;27696;42.704;23.304;2022-07-09T06:03:07;95183.66;;;30.85;33.86
42007;BME280;27696;42.704;23.304;2022-07-09T06:05:32;95189.81;;;30.92;33.38
42007;BME280;27696;42.704;23.304;2022-07-09T06:07:58;95183.66;;;30.41;33.80
42007;BME280;27696;42.704;23.304;2022-07-09T06:10:23;95183.34;;;30.97;33.58
42007;BME280;27696;42.704;23.304;2022-07-09T06:12:49;95191.09;;;30.46;34.11
42007;BME280;27696;42.704;23.304;2022-07-09T06:15:14;95175.47;;;31.32;32.72
42007;BME280;27696;42.704;23.304;2022-07-09T06:17:40;95187.91;;;30.79;33.71
42007;BME280;27696;42.704;23.304;2022-07-09T06:20:06;95173.59;;;31.11;32.92
42007;BME280;27696;42.704;23.304;2022-07-09T06:22:32;95184.88;;;31.29;32.90
42007;BME280;27696;42.704;23.304;2022-07-09T06:24:57;95180.66;;;31.90;31.82
42007;BME280;27696;42.704;23.304;2022-07-09T06:27:23;95191.38;;;31.55;32.10
42007;BME280;27696;42.704;23.304;2022-07-09T06:29:48;95190.63;;;31.62;32.50
42007;BME280;27696;42.704;23.304;2022-07-09T06:32:14;95189.53;;;31.65;32.43
42007;BME280;27696;42.704;23.304;2022-07-09T06:34:39;95190.25;;;31.65;32.47
42007;BME280;27696;42.704;23.304;2022-07-09T06:37:04;95175.47;;;31.47;32.45
42007;BME280;27696;42.704;23.304;2022-07-09T06:39:30;95170.09;;;31.49;32.60
42007;BME280;27696;42.704;23.304;2022-07-09T06:42:22;95198.44;;;31.79;32.07
42007;BME280;27696;42.704;23.304;2022-07-09T06:44:47;95188.94;;;32.69;30.87
42007;BME280;27696;42.704;23.304;2022-07-09T06:47:13;95189.53;;;31.34;32.09
42007;BME280;27696;42.704;23.304;2022-07-09T06:49:38;95199.53;;;32.63;30.85
42007;BME280;27696;42.704;23.304;2022-07-09T06:52:05;95191.38;;;31.39;32.56
42007;BME280;27696;42.704;23.304;2022-07-09T06:54:30;95187.66;;;31.68;32.06
42007;BME280;27696;42.704;23.304;2022-07-09T06:56:56;95197.84;;;32.11;31.26
42007;BME280;27696;42.704;23.304;2022-07-09T06:59:25;95185.03;;;32.72;30.93
42007;BME280;27696;42.704;23.304;2022-07-09T07:01:50;95191.91;;;32.71;30.77
42007;BME280;27696;42.704;23.304;2022-07-09T07:04:16;95193.78;;;31.97;31.79
42007;BME280;27696;42.704;23.304;2022-07-09T07:06:42;95191.38;;;31.55;32.90
42007;BME280;27696;42.704;23.304;2022-07-09T07:09:08;95175.22;;;32.23;31.39
42007;BME280;27696;42.704;23.304;2022-07-09T07:11:33;95199.34;;;31.82;32.39
42007;BME280;27696;42.704;23.304;2022-07-09T07:13:59;95204.69;;;31.64;33.09
42007;BME280;27696;42.704;23.304;2022-07-09T07:16:24;95201.31;;;32.20;31.82
42007;BME280;27696;42.704;23.304;2022-07-09T07:18:50;95180.06;;;32.07;32.29
42007;BME280;27696;42.704;23.304;2022-07-09T07:21:15;95189.38;;;31.71;32.60
42007;BME280;27696;42.704;23.304;2022-07-09T07:23:41;95189.69;;;31.98;32.59
42007;BME280;27696;42.704;23.304;2022-07-09T07:26:06;95196.72;;;32.07;32.67
42007;BME280;27696;42.704;23.304;2022-07-09T07:28:31;95182.84;;;32.63;31.46
42007;BME280;27696;42.704;23.304;2022-07-09T07:30:57;95191.41;;;33.31;30.68
42007;BME280;27696;42.704;23.304;2022-07-09T07:33:22;95186.41;;;32.56;30.97
42007;BME280;27696;42.704;23.304;2022-07-09T07:35:48;95196.78;;;33.29;30.24
42007;BME280;27696;42.704;23.304;2022-07-09T07:38:14;95199.84;;;32.19;31.96
42007;BME280;27696;42.704;23.304;2022-07-09T07:40:39;95190.41;;;32.22;31.84
42007;BME280;27696;42.704;23.304;2022-07-09T07:43:05;95193.09;;;32.53;31.04
42007;BME280;27696;42.704;23.304;2022-07-09T07:45:31;95193.13;;;32.45;31.95
42007;BME280;27696;42.704;23.304;2022-07-09T07:47:57;95189.44;;;32.35;32.01
42007;BME280;27696;42.704;23.304;2022-07-09T07:50:23;95212.00;;;32.47;30.73
42007;BME280;27696;42.704;23.304;2022-07-09T07:52:49;95200.47;;;33.07;30.42
42007;BME280;27696;42.704;23.304;2022-07-09T07:55:15;95201.69;;;32.88;30.36
42007;BME280;27696;42.704;23.304;2022-07-09T07:57:41;95216.16;;;32.30;31.20
42007;BME280;27696;42.704;23.304;2022-07-09T08:00:07;95199.88;;;32.67;31.12
42007;BME280;27696;42.704;23.304;2022-07-09T08:02:34;95204.28;;;32.86;30.49
42007;BME280;27696;42.704;23.304;2022-07-09T08:05:02;95194.91;;;32.58;30.80
42007;BME280;27696;42.704;23.304;2022-07-09T08:07:27;95193.78;;;33.10;29.85
42007;BME280;27696;42.704;23.304;2022-07-09T08:09:53;95207.31;;;33.06;30.33
42007;BME280;27696;42.704;23.304;2022-07-09T08:12:19;95200.41;;;32.17;31.01
42007;BME280;27696;42.704;23.304;2022-07-09T08:14:44;95198.09;;;32.47;31.30
42007;BME280;27696;42.704;23.304;2022-07-09T08:17:10;95173.97;;;33.56;29.22
42007;BME280;27696;42.704;23.304;2022-07-09T08:19:36;95201.44;;;34.03;28.36
42007;BME280;27696;42.704;23.304;2022-07-09T08:22:01;95197.66;;;33.90;28.76
42007;BME280;27696;42.704;23.304;2022-07-09T08:24:27;95192.19;;;33.24;29.47
42007;BME280;27696;42.704;23.304;2022-07-09T08:26:53;95201.84;;;32.41;30.56
42007;BME280;27696;42.704;23.304;2022-07-09T08:29:18;95198.34;;;32.18;31.63
42007;BME280;27696;42.704;23.304;2022-07-09T08:31:44;95187.91;;;34.17;28.58
42007;BME280;27696;42.704;23.304;2022-07-09T08:34:09;95188.25;;;33.35;29.43
42007;BME280;27696;42.704;23.304;2022-07-09T08:36:35;95185.44;;;33.10;29.85
42007;BME280;27696;42.704;23.304;2022-07-09T08:39:00;95181.34;;;33.61;29.00
42007;BME280;27696;42.704;23.304;2022-07-09T08:41:26;95196.13;;;33.72;29.23
42007;BME280;27696;42.704;23.304;2022-07-09T08:43:52;95189.31;;;35.15;28.12
42007;BME280;27696;42.704;23.304;2022-07-09T08:46:18;95199.34;;;32.69;30.83
42007;BME280;27696;42.704;23.304;2022-07-09T08:48:44;95200.03;;;34.29;28.02
42007;BME280;27696;42.704;23.304;2022-07-09T08:51:11;95199.44;;;32.86;29.83
42007;BME280;27696;42.704;23.304;2022-07-09T08:53:40;95208.66;;;33.30;30.10
42007;BME280;27696;42.704;23.304;2022-07-09T08:56:07;95205.34;;;32.98;30.49
42007;BME280;27696;42.704;23.304;2022-07-09T08:58:33;95199.34;;;33.10;30.33
42007;BME280;27696;42.704;23.304;2022-07-09T09:00:58;95211.53;;;33.47;30.15
42007;BME280;27696;42.704;23.304;2022-07-09T09:03:24;95216.38;;;34.15;28.49
42007;BME280;27696;42.704;23.304;2022-07-09T09:06:03;95195.19;;;32.21;31.48
42007;BME280;27696;42.704;23.304;2022-07-09T09:08:37;95206.34;;;34.12;28.96
42007;BME280;27696;42.704;23.304;2022-07-09T09:11:19;95208.13;;;34.00;29.14
42007;BME280;27696;42.704;23.304;2022-07-09T09:13:47;95190.16;;;33.50;30.02
42007;BME280;27696;42.704;23.304;2022-07-09T09:16:14;95218.03;;;33.17;30.38
42007;BME280;27696;42.704;23.304;2022-07-09T09:21:08;95209.47;;;34.69;28.51
42007;BME280;27696;42.704;23.304;2022-07-09T09:23:44;95197.34;;;34.21;28.84
42007;BME280;27696;42.704;23.304;2022-07-09T09:26:22;95211.13;;;34.37;29.04
42007;BME280;27696;42.704;23.304;2022-07-09T09:28:58;95215.78;;;33.99;29.38
42007;BME280;27696;42.704;23.304;2022-07-09T09:31:28;95206.22;;;34.45;29.07
42007;BME280;27696;42.704;23.304;2022-07-09T09:34:11;95210.06;;;33.13;30.33
42007;BME280;27696;42.704;23.304;2022-07-09T09:36:38;95204.88;;;33.68;29.40
42007;BME280;27696;42.704;23.304;2022-07-09T09:39:24;95195.97;;;35.20;27.66
42007;BME280;27696;42.704;23.304;2022-07-09T09:41:58;95203.22;;;33.65;29.46
42007;BME280;27696;42.704;23.304;2022-07-09T09:44:26;95189.31;;;33.83;29.64
42007;BME280;27696;42.704;23.304;2022-07-09T09:46:54;95210.50;;;34.03;29.50
42007;BME280;27696;42.704;23.304;2022-07-09T09:49:20;95177.63;;;32.26;30.72
42007;BME280;27696;42.704;23.304;2022-07-09T09:54:20;95209.50;;;33.15;29.89
42007;BME280;27696;42.704;23.304;2022-07-09T09:56:46;95210.56;;;33.19;29.44
42007;BME280;27696;42.704;23.304;2022-07-09T09:59:12;95220.69;;;32.99;30.12
42007;BME280;27696;42.704;23.304;2022-07-09T10:01:40;95206.88;;;33.17;30.19
42007;BME280;27696;42.704;23.304;2022-07-09T10:04:06;95207.16;;;33.37;29.39
42007;BME280;27696;42.704;23.304;2022-07-09T10:06:33;95212.91;;;33.82;29.10
42007;BME280;27696;42.704;23.304;2022-07-09T10:09:03;95214.25;;;33.55;29.60
42007;BME280;27696;42.704;23.304;2022-07-09T10:11:39;95206.78;;;33.32;29.62
42007;BME280;27696;42.704;23.304;2022-07-09T10:14:05;95203.56;;;31.28;31.86
42007;BME280;27696;42.704;23.304;2022-07-09T10:16:35;95212.66;;;32.06;31.26
42007;BME280;27696;42.704;23.304;2022-07-09T10:19:01;95198.56;;;32.76;30.52
42007;BME280;27696;42.704;23.304;2022-07-09T10:21:38;95203.91;;;33.48;30.01
42007;BME280;27696;42.704;23.304;2022-07-09T10:24:05;95211.34;;;32.23;32.29
42007;BME280;27696;42.704;23.304;2022-07-09T10:29:21;95211.34;;;33.71;30.09
42007;BME280;27696;42.704;23.304;2022-07-09T10:31:47;95210.94;;;32.34;32.53
42007;BME280;27696;42.704;23.304;2022-07-09T10:37:04;95213.63;;;33.64;30.43
42007;BME280;27696;42.704;23.304;2022-07-09T10:39:31;95236.00;;;31.88;32.58
42007;BME280;27696;42.704;23.304;2022-07-09T10:42:04;95220.44;;;31.92;32.53
42007;BME280;27696;42.704;23.304;2022-07-09T10:44:37;95232.72;;;32.61;31.27
42007;BME280;27696;42.704;23.304;2022-07-09T10:47:04;95222.47;;;31.53;32.77
42007;BME280;27696;42.704;23.304;2022-07-09T10:49:30;95196.84;;;32.40;31.11
42007;BME280;27696;42.704;23.304;2022-07-09T10:51:57;95236.31;;;32.95;31.11
42007;BME280;27696;42.704;23.304;2022-07-09T10:54:23;95232.38;;;33.39;30.46
42007;BME280;27696;42.704;23.304;2022-07-09T10:56:48;95227.31;;;31.84;32.29
42007;BME280;27696;42.704;23.304;2022-07-09T10:59:18;95236.94;;;31.90;32.15
42007;BME280;27696;42.704;23.304;2022-07-09T11:01:44;95248.72;;;30.84;33.37
42007;BME280;27696;42.704;23.304;2022-07-09T11:04:09;95238.34;;;31.37;32.74
42007;BME280;27696;42.704;23.304;2022-07-09T11:06:47;95231.25;;;34.10;28.95
42007;BME280;27696;42.704;23.304;2022-07-09T11:09:13;95221.34;;;33.15;29.98
42007;BME280;27696;42.704;23.304;2022-07-09T11:11:41;95225.88;;;32.62;30.73
42007;BME280;27696;42.704;23.304;2022-07-09T11:14:08;95243.53;;;32.41;30.13
42007;BME280;27696;42.704;23.304;2022-07-09T11:16:33;95248.94;;;31.93;31.40
42007;BME280;27696;42.704;23.304;2022-07-09T11:18:59;95219.13;;;31.55;31.69
42007;BME280;27696;42.704;23.304;2022-07-09T11:21:25;95246.50;;;32.44;30.90
42007;BME280;27696;42.704;23.304;2022-07-09T11:23:51;95261.13;;;30.18;33.85
42007;BME280;27696;42.704;23.304;2022-07-09T11:26:17;95252.63;;;30.81;33.10
42007;BME280;27696;42.704;23.304;2022-07-09T11:28:44;95239.88;;;31.85;31.67
42007;BME280;27696;42.704;23.304;2022-07-09T11:31:09;95241.78;;;30.25;33.51
42007;BME280;27696;42.704;23.304;2022-07-09T11:33:36;95232.44;;;31.56;32.19
42007;BME280;27696;42.704;23.304;2022-07-09T11:36:20;95237.81;;;31.62;31.54
42007;BME280;27696;42.704;23.304;2022-07-09T11:38:52;95238.22;;;31.66;31.55
42007;BME280;27696;42.704;23.304;2022-07-09T11:41:18;95239.09;;;32.38;30.63
42007;BME280;27696;42.704;23.304;2022-07-09T11:46:16;95229.47;;;32.24;31.10
42007;BME280;27696;42.704;23.304;2022-07-09T11:48:51;95226.34;;;32.04;30.58
42007;BME280;27696;42.704;23.304;2022-07-09T11:51:30;95222.84;;;32.11;30.75
42007;BME280;27696;42.704;23.304;2022-07-09T11:53:56;95218.81;;;31.74;31.13
42007;BME280;27696;42.704;23.304;2022-07-09T11:56:22;95229.81;;;31.12;31.91
42007;BME280;27696;42.704;23.304;2022-07-09T11:58:51;95218.00;;;31.27;31.90
42007;BME280;27696;42.704;23.304;2022-07-09T12:01:16;95236.31;;;30.70;32.85
42007;BME280;27696;42.704;23.304;2022-07-09T12:03:49;95221.81;;;32.55;30.71
42007;BME280;27696;42.704;23.304;2022-07-09T12:06:15;95222.13;;;31.88;31.10
42007;BME280;27696;42.704;23.304;2022-07-09T12:08:41;95223.22;;;31.85;31.21
42007;BME280;27696;42.704;23.304;2022-07-09T12:11:07;95216.34;;;31.24;31.93
42007;BME280;27696;42.704;23.304;2022-07-09T12:13:32;95215.38;;;32.37;30.15
42007;BME280;27696;42.704;23.304;2022-07-09T12:15:58;95220.06;;;31.80;30.92
42007;BME280;27696;42.704;23.304;2022-07-09T12:18:23;95223.22;;;31.85;31.08
42007;BME280;27696;42.704;23.304;2022-07-09T12:20:49;95228.22;;;31.47;31.67
42007;BME280;27696;42.704;23.304;2022-07-09T12:23:15;95198.72;;;32.22;30.67
42007;BME280;27696;42.704;23.304;2022-07-09T12:25:40;95216.09;;;32.46;29.84
42007;BME280;27696;42.704;23.304;2022-07-09T12:28:06;95200.16;;;32.95;28.98
42007;BME280;27696;42.704;23.304;2022-07-09T12:30:31;95206.50;;;33.21;28.68
42007;BME280;27696;42.704;23.304;2022-07-09T12:32:57;95206.06;;;33.57;28.59
42007;BME280;27696;42.704;23.304;2022-07-09T12:35:26;95213.38;;;32.79;29.69
42007;BME280;27696;42.704;23.304;2022-07-09T12:37:51;95214.59;;;32.52;29.41
42007;BME280;27696;42.704;23.304;2022-07-09T12:40:17;95197.88;;;33.59;28.36
42007;BME280;27696;42.704;23.304;2022-07-09T12:42:43;95207.25;;;32.32;29.83
42007;BME280;27696;42.704;23.304;2022-07-09T12:45:10;95211.19;;;32.69;29.24
42007;BME280;27696;42.704;23.304;2022-07-09T12:47:35;95184.66;;;32.68;29.36
42007;BME280;27696;42.704;23.304;2022-07-09T12:50:02;95209.28;;;32.16;29.78
42007;BME280;27696;42.704;23.304;2022-07-09T12:52:30;95195.41;;;32.80;28.88
42007;BME280;27696;42.704;23.304;2022-07-09T12:54:58;95206.88;;;32.20;30.04
42007;BME280;27696;42.704;23.304;2022-07-09T12:57:24;95185.22;;;33.84;27.88
42007;BME280;27696;42.704;23.304;2022-07-09T12:59:49;95192.19;;;33.24;28.40